Time;durP1;ratioP1;P1;durP2;ratioP2;P2;SDS_P1;SDS_P2;PMS_P1;PMS_P2;Temp;Humidity;BMP_temperature;BMP_pressure;BME280_temperature;BME280_humidity;BME280_pressure;Samples;Min_cycle;Max_cycle;Signal;HPM_P1;HPM_P2
2022/06/10 00:00:45;;;;;;;13.93;8.55;;;18.50;99.90;;;;;;4975093;28;20034;-75
2022/06/10 00:03:12;;;;;;;13.13;8.27;;;18.50;99.90;;;;;;4975100;28;20033;-75
2022/06/10 00:05:39;;;;;;;16.52;9.65;;;18.50;99.90;;;;;;4975176;28;20031;-75
2022/06/10 00:08:11;;;;;;;15.65;8.50;;;18.50;99.90;;;;;;4974466;28;20033;-74
2022/06/10 00:10:38;;;;;;;16.08;8.88;;;18.60;99.90;;;;;;4974989;28;20043;-73
2022/06/10 00:13:05;;;;;;;15.60;8.93;;;18.70;99.90;;;;;;4974870;28;20469;-74
2022/06/10 00:15:31;;;;;;;14.52;8.85;;;18.70;99.90;;;;;;4973735;28;20448;-75
2022/06/10 00:17:58;;;;;;;17.73;9.43;;;18.70;99.90;;;;;;4974821;28;20018;-74
2022/06/10 00:20:27;;;;;;;13.55;8.50;;;18.80;99.90;;;;;;4974543;28;20046;-75
2022/06/10 00:22:54;;;;;;;15.88;9.70;;;18.80;99.90;;;;;;4974277;28;20429;-75
2022/06/10 00:25:21;;;;;;;12.73;8.30;;;18.80;99.90;;;;;;4974580;28;20085;-70
2022/06/10 00:27:49;;;;;;;16.80;10.30;;;18.80;99.90;;;;;;4974843;28;20091;-74
2022/06/10 00:30:17;;;;;;;16.08;9.23;;;18.80;99.90;;;;;;4974442;28;20089;-75
2022/06/10 00:32:43;;;;;;;16.02;9.43;;;18.80;99.90;;;;;;4974603;28;20031;-75
2022/06/10 00:35:10;;;;;;;16.77;9.43;;;18.80;99.90;;;;;;4974620;28;20053;-75
2022/06/10 00:37:36;;;;;;;15.55;8.63;;;18.90;99.90;;;;;;4974121;28;20033;-75
2022/06/10 00:40:05;;;;;;;16.35;10.40;;;18.90;99.90;;;;;;4979924;28;20034;-74
2022/06/10 00:42:31;;;;;;;14.73;9.57;;;18.80;99.90;;;;;;4974882;28;20023;-74
2022/06/10 00:44:56;;;;;;;18.05;9.38;;;18.90;99.90;;;;;;4974267;28;20070;-72
2022/06/10 00:47:25;;;;;;;15.18;9.07;;;18.90;99.90;;;;;;4974327;28;20062;-74
2022/06/10 00:50:16;;;;;;;15.88;9.85;;;19.00;99.90;;;;;;4973902;28;20523;-71
2022/06/10 00:52:47;;;;;;;14.52;9.90;;;18.90;99.90;;;;;;4973378;28;20105;-73
2022/06/10 00:55:13;;;;;;;15.13;9.55;;;18.80;99.90;;;;;;4973826;28;20019;-75
2022/06/10 00:57:45;;;;;;;19.15;9.32;;;18.80;99.90;;;;;;4974057;28;20033;-74
2022/06/10 01:00:13;;;;;;;;;;;18.80;99.90;;;;;;4983608;28;20500;-67
2022/06/10 01:02:40;;;;;;;15.80;9.32;;;18.70;99.90;;;;;;4973793;28;19973;-71
2022/06/10 01:05:14;;;;;;;16.52;10.02;;;18.80;99.90;;;;;;4972034;28;20463;-71
2022/06/10 01:07:43;;;;;;;16.83;9.77;;;18.80;99.90;;;;;;4963770;28;20039;-74
2022/06/10 01:10:12;;;;;;;13.35;9.30;;;18.90;99.90;;;;;;4973797;28;20027;-74
2022/06/10 01:13:04;;;;;;;22.73;11.05;;;18.90;99.90;;;;;;4979617;28;20035;-74
2022/06/10 01:15:32;;;;;;;13.65;9.40;;;18.80;99.90;;;;;;4974124;28;20039;-75
2022/06/10 01:18:13;;;;;;;15.70;9.65;;;18.80;99.90;;;;;;4973270;28;20280;-75
2022/06/10 01:20:45;;;;;;;16.38;10.25;;;18.80;99.90;;;;;;4965177;28;20042;-69
2022/06/10 01:23:32;;;;;;;16.10;10.73;;;18.70;99.90;;;;;;4973260;28;20027;-63
2022/06/10 01:26:25;;;;;;;13.93;9.70;;;18.80;99.90;;;;;;4971893;28;20088;-74
2022/06/10 01:29:28;;;;;;;18.88;10.20;;;18.80;99.90;;;;;;4972470;28;20037;-71
2022/06/10 01:32:01;;;;;;;15.43;9.35;;;18.80;99.90;;;;;;4968431;28;20552;-73
2022/06/10 01:34:46;;;;;;;18.40;9.98;;;18.80;99.90;;;;;;4972639;28;20027;-74
2022/06/10 01:37:41;;;;;;;17.70;10.15;;;18.80;99.90;;;;;;4971963;28;20026;-74
2022/06/10 01:40:45;;;;;;;16.98;10.55;;;18.90;99.90;;;;;;4969413;28;20130;-73
2022/06/10 01:43:52;;;;;;;17.00;10.32;;;18.80;99.90;;;;;;4928580;29;20048;-74
2022/06/10 01:46:27;;;;;;;15.10;9.68;;;18.90;99.90;;;;;;4876914;29;20143;-74
2022/06/10 01:49:16;;;;;;;20.30;10.18;;;18.90;99.90;;;;;;4874541;29;20086;-74
2022/06/10 01:52:02;;;;;;;14.32;9.38;;;18.90;99.90;;;;;;4835355;29;20030;-73
2022/06/10 01:54:41;;;;;;;15.45;10.07;;;18.90;99.90;;;;;;4838845;29;20042;-75
2022/06/10 01:57:18;;;;;;;13.40;9.38;;;18.90;99.90;;;;;;4834357;29;20049;-74
2022/06/10 02:00:06;;;;;;;16.17;9.88;;;19.00;99.90;;;;;;4834272;29;20049;-72
2022/06/10 02:02:37;;;;;;;16.67;9.43;;;19.00;99.90;;;;;;4836077;29;20042;-74
2022/06/10 02:05:10;;;;;;;16.58;10.00;;;19.00;99.90;;;;;;4838117;29;20041;-74
2022/06/10 02:07:45;;;;;;;15.27;9.38;;;19.10;99.90;;;;;;4834626;29;20037;-74
2022/06/10 02:10:31;;;;;;;13.05;8.90;;;19.10;99.90;;;;;;4837376;29;20049;-71
2022/06/10 02:13:02;;;;;;;13.80;9.27;;;19.20;99.90;;;;;;4837131;29;20405;-74
2022/06/10 02:15:56;;;;;;;17.48;10.07;;;19.30;99.90;;;;;;4836699;29;20050;-74
2022/06/10 02:18:41;;;;;;;14.50;10.30;;;19.40;99.90;;;;;;4832600;29;20042;-74
2022/06/10 02:21:16;;;;;;;13.50;8.85;;;19.50;99.90;;;;;;4887924;29;20083;-73
2022/06/10 02:23:46;;;;;;;20.38;9.45;;;19.50;99.90;;;;;;4924240;29;20039;-73
2022/06/10 02:26:13;;;;;;;13.68;9.10;;;19.50;99.90;;;;;;4931241;29;20372;-74
2022/06/10 02:28:43;;;;;;;15.07;9.63;;;19.60;99.90;;;;;;4949688;28;20035;-74
2022/06/10 02:31:41;;;;;;;15.48;8.30;;;19.60;99.90;;;;;;4971530;28;20022;-74
2022/06/10 02:34:08;;;;;;;15.65;9.82;;;19.60;99.90;;;;;;4969957;28;20031;-74
2022/06/10 02:36:57;;;;;;;14.63;9.82;;;19.60;99.90;;;;;;4971670;28;20081;-74
2022/06/10 02:39:25;;;;;;;17.63;9.45;;;19.60;99.90;;;;;;4971118;28;20043;-73
2022/06/10 02:42:01;;;;;;;12.65;9.02;;;19.60;99.90;;;;;;4971593;28;20034;-73
2022/06/10 02:44:56;;;;;;;26.15;9.98;;;19.60;99.90;;;;;;4971032;28;20405;-74
2022/06/10 02:47:57;;;;;;;19.55;10.00;;;19.60;99.90;;;;;;4968724;28;20090;-75
2022/06/10 02:50:24;;;;;;;16.30;9.55;;;19.60;99.90;;;;;;4930196;29;20119;-74
2022/06/10 02:52:50;;;;;;;16.40;9.77;;;19.50;99.90;;;;;;4933148;29;20039;-74
2022/06/10 02:55:21;;;;;;;15.88;9.75;;;19.50;99.90;;;;;;4933844;29;20425;-74
2022/06/10 03:01:18;;;;;;;14.80;9.88;;;19.50;99.90;;;;;;4919378;29;20123;-74
2022/06/10 03:04:14;;;;;;;15.50;9.07;;;19.50;99.90;;;;;;4940190;29;20125;-74
2022/06/10 03:07:21;;;;;;;17.05;9.77;;;19.50;99.90;;;;;;4950816;28;20117;-75
2022/06/10 03:09:50;;;;;;;15.88;9.38;;;19.60;99.90;;;;;;4895759;29;20078;-74
2022/06/10 03:12:31;;;;;;;15.38;9.55;;;19.50;99.90;;;;;;4896024;29;20115;-74
2022/06/10 03:15:38;;;;;;;15.77;10.70;;;19.60;99.90;;;;;;4895414;29;20399;-74
2022/06/10 03:18:23;;;;;;;16.38;9.68;;;19.60;99.90;;;;;;4876967;29;20500;-73
2022/06/10 03:21:00;;;;;;;16.15;9.93;;;19.60;99.90;;;;;;4877022;29;20124;-74
2022/06/10 03:24:27;;;;;;;16.33;9.63;;;19.60;99.90;;;;;;4877194;29;20117;-74
2022/06/10 03:27:22;;;;;;;16.95;10.60;;;19.40;99.90;;;;;;4804756;29;20436;-74
2022/06/10 03:30:07;;;;;;;13.77;9.60;;;19.50;99.90;;;;;;4803475;29;20058;-72
2022/06/10 03:32:39;;;;;;;17.58;10.35;;;19.50;99.90;;;;;;4804733;29;20519;-75
2022/06/10 03:35:31;;;;;;;16.83;10.05;;;19.70;99.90;;;;;;4803656;29;20051;-73
2022/06/10 03:37:57;;;;;;;14.27;9.63;;;20.00;99.90;;;;;;4803712;29;20459;-74
2022/06/10 03:40:27;;;;;;;17.25;9.77;;;20.20;99.90;;;;;;4803174;29;20034;-75
2022/06/10 03:42:57;;;;;;;14.57;9.95;;;20.60;99.90;;;;;;4803315;29;20055;-74
2022/06/10 03:45:27;;;;;;;12.77;8.00;;;21.30;99.90;;;;;;4831146;29;20049;-74
2022/06/10 03:47:53;;;;;;;14.60;8.55;;;21.50;99.90;;;;;;4857731;29;20097;-72
2022/06/10 03:50:24;;;;;;;18.02;9.85;;;21.40;99.90;;;;;;4854075;29;20037;-76
2022/06/10 03:52:53;;;;;;;16.25;8.38;;;21.50;99.90;;;;;;4857289;29;20089;-75
2022/06/10 03:55:20;;;;;;;16.77;8.93;;;21.00;99.90;;;;;;4874270;29;20109;-75
2022/06/10 03:57:47;;;;;;;14.50;9.02;;;21.00;99.90;;;;;;4872870;29;20052;-71
2022/06/10 04:00:22;;;;;;;16.02;9.25;;;20.80;99.90;;;;;;4867302;29;20045;-72
2022/06/10 04:02:49;;;;;;;14.38;10.50;;;20.80;99.90;;;;;;4921085;28;20026;-71
2022/06/10 04:05:15;;;;;;;15.85;9.80;;;20.40;99.90;;;;;;4973400;28;20067;-75
2022/06/10 04:07:41;;;;;;;15.05;9.98;;;20.30;99.90;;;;;;4973198;28;20105;-74
2022/06/10 04:10:09;;;;;;;16.52;9.55;;;20.40;99.90;;;;;;4973077;28;20449;-73
2022/06/10 04:12:36;;;;;;;15.82;10.82;;;20.40;99.90;;;;;;4969887;28;20058;-74
2022/06/10 04:15:04;;;;;;;15.50;9.98;;;20.30;99.90;;;;;;4972959;28;20026;-74
2022/06/10 04:17:30;;;;;;;19.58;11.15;;;20.20;99.90;;;;;;4971881;28;20050;-73
2022/06/10 04:19:57;;;;;;;16.42;10.73;;;20.00;99.90;;;;;;4972304;28;20397;-76
2022/06/10 04:22:23;;;;;;;15.93;10.52;;;19.80;99.90;;;;;;4972588;28;20412;-77
2022/06/10 04:24:50;;;;;;;18.45;11.43;;;19.70;99.90;;;;;;4972548;28;20022;-70
2022/06/10 04:27:16;;;;;;;15.95;10.80;;;19.70;99.90;;;;;;4972728;28;20030;-75
2022/06/10 04:29:42;;;;;;;17.48;10.93;;;19.50;99.90;;;;;;4974292;28;20033;-79
2022/06/10 04:32:08;;;;;;;18.23;10.73;;;19.40;99.90;;;;;;4974485;28;20031;-84
2022/06/10 04:34:36;;;;;;;17.92;11.50;;;19.40;99.90;;;;;;4973622;28;20081;-82
2022/06/10 04:37:04;;;;;;;16.85;12.07;;;19.60;99.90;;;;;;4972850;28;20027;-80
2022/06/10 04:39:29;;;;;;;19.95;11.57;;;19.50;99.90;;;;;;4972764;28;20030;-81
2022/06/10 04:41:55;;;;;;;15.60;10.98;;;19.70;99.90;;;;;;4972826;28;20582;-80
2022/06/10 04:44:21;;;;;;;14.75;10.85;;;20.10;99.90;;;;;;4972325;28;20045;-81
2022/06/10 04:46:47;;;;;;;17.77;10.43;;;21.70;99.90;;;;;;4972386;28;20041;-81
2022/06/10 04:49:13;;;;;;;15.05;10.10;;;22.50;99.90;;;;;;4967495;28;20385;-81
2022/06/10 04:51:39;;;;;;;16.48;9.15;;;21.90;99.90;;;;;;4969722;28;20050;-81
2022/06/10 04:54:06;;;;;;;15.18;10.35;;;22.40;99.90;;;;;;4969999;28;20023;-81
2022/06/10 04:56:32;;;;;;;15.45;10.27;;;22.10;99.90;;;;;;4971832;28;20031;-82
2022/06/10 04:58:58;;;;;;;16.77;10.60;;;21.90;99.90;;;;;;4971958;28;20073;-82
2022/06/10 05:01:24;;;;;;;17.35;10.75;;;21.50;99.90;;;;;;4972029;28;20050;-81
2022/06/10 05:03:50;;;;;;;17.98;11.13;;;21.10;99.90;;;;;;4972042;28;20093;-79
2022/06/10 05:06:16;;;;;;;17.63;10.88;;;21.20;99.90;;;;;;4972572;28;20109;-81
2022/06/10 05:08:42;;;;;;;18.48;12.35;;;20.70;99.90;;;;;;4972345;28;20027;-81
2022/06/10 05:11:08;;;;;;;17.52;10.75;;;20.80;99.90;;;;;;4972022;28;20037;-81
2022/06/10 05:13:35;;;;;;;16.95;11.00;;;21.40;99.90;;;;;;4972591;28;20047;-81
2022/06/10 05:16:01;;;;;;;20.75;12.82;;;21.10;99.90;;;;;;4971273;28;20388;-80
2022/06/10 05:18:27;;;;;;;20.20;13.05;;;21.10;99.90;;;;;;4972236;28;20023;-80
2022/06/10 05:20:54;;;;;;;20.73;13.50;;;20.60;99.90;;;;;;4972234;28;20129;-77
2022/06/10 05:23:21;;;;;;;17.92;12.98;;;20.50;99.90;;;;;;4971789;28;20043;-68
2022/06/10 05:25:47;;;;;;;26.00;13.02;;;20.20;99.90;;;;;;4972096;28;20047;-79
2022/06/10 05:28:14;;;;;;;21.95;13.52;;;20.60;99.90;;;;;;4971661;28;20054;-71
2022/06/10 05:30:40;;;;;;;20.15;14.43;;;20.60;99.90;;;;;;4970918;28;20684;-79
2022/06/10 05:33:08;;;;;;;21.67;14.25;;;20.70;99.90;;;;;;4971410;28;20019;-80
2022/06/10 05:35:34;;;;;;;21.88;14.15;;;21.00;99.90;;;;;;4971513;28;20046;-82
2022/06/10 05:38:01;;;;;;;20.63;13.88;;;21.20;99.90;;;;;;4971324;28;20018;-70
2022/06/10 05:40:29;;;;;;;19.88;13.63;;;21.10;99.90;;;;;;4970556;28;20038;-80
2022/06/10 05:42:55;;;;;;;21.10;15.10;;;21.20;99.90;;;;;;4971392;28;20417;-75
2022/06/10 05:45:22;;;;;;;23.17;14.13;;;21.00;99.90;;;;;;4971221;28;20046;-66
2022/06/10 05:47:51;;;;;;;19.90;13.35;;;21.20;99.90;;;;;;4971535;28;20143;-81
2022/06/10 05:50:30;;;;;;;22.00;14.60;;;21.00;99.90;;;;;;4971501;28;20058;-70
2022/06/10 05:52:56;;;;;;;20.33;14.00;;;20.70;99.90;;;;;;4968745;28;20027;-79
2022/06/10 05:55:23;;;;;;;22.27;15.02;;;20.90;99.90;;;;;;4967537;28;20421;-81
2022/06/10 05:57:50;;;;;;;23.95;14.68;;;20.60;99.90;;;;;;4971213;28;20116;-80
2022/06/10 06:00:23;;;;;;;22.40;14.55;;;20.60;99.90;;;;;;4971714;28;20157;-80
2022/06/10 06:02:49;;;;;;;21.58;14.68;;;20.90;99.90;;;;;;4970786;28;20066;-80
2022/06/10 06:05:16;;;;;;;20.70;13.80;;;20.90;99.90;;;;;;4971199;28;20066;-79
2022/06/10 06:07:44;;;;;;;20.98;13.52;;;21.10;99.90;;;;;;4971037;28;20023;-68
2022/06/10 06:10:15;;;;;;;19.38;12.98;;;21.10;99.90;;;;;;4970837;28;20033;-80
2022/06/10 06:12:43;;;;;;;19.60;13.50;;;21.20;99.90;;;;;;4971176;28;20030;-80
2022/06/10 06:15:11;;;;;;;18.80;13.18;;;21.00;99.90;;;;;;4970856;28;20105;-77
2022/06/10 06:17:37;;;;;;;19.27;13.10;;;21.00;99.90;;;;;;4968774;28;20027;-78
2022/06/10 06:20:04;;;;;;;18.58;13.15;;;21.40;99.90;;;;;;4953950;28;20469;-81
2022/06/10 06:22:30;;;;;;;18.30;13.52;;;21.90;99.90;;;;;;4970833;28;20532;-79
2022/06/10 06:24:56;;;;;;;16.02;11.13;;;22.20;99.90;;;;;;4971607;28;20047;-81
2022/06/10 06:27:22;;;;;;;15.90;11.52;;;22.50;99.90;;;;;;4973027;28;20035;-80
2022/06/10 06:29:47;;;;;;;17.83;12.32;;;22.70;99.90;;;;;;4974943;28;20027;-80
2022/06/10 06:32:13;;;;;;;15.82;11.48;;;22.90;99.90;;;;;;4974925;28;20038;-78
2022/06/10 06:34:39;;;;;;;17.00;11.23;;;22.70;99.90;;;;;;4974955;28;20420;-82
2022/06/10 06:37:10;;;;;;;20.50;12.07;;;22.40;99.90;;;;;;4974520;28;20069;-81
2022/06/10 06:39:36;;;;;;;18.40;11.70;;;22.30;99.90;;;;;;4974341;28;20046;-80
2022/06/10 06:42:03;;;;;;;17.92;10.57;;;22.40;99.90;;;;;;4974399;28;20023;-75
2022/06/10 06:44:32;;;;;;;15.95;11.15;;;22.80;99.90;;;;;;4973560;28;20039;-79
2022/06/10 06:46:58;;;;;;;14.82;9.95;;;22.90;99.90;;;;;;4974588;28;20031;-82
2022/06/10 06:49:27;;;;;;;14.93;10.48;;;23.00;99.90;;;;;;4974557;28;20042;-81
2022/06/10 06:51:54;;;;;;;14.85;9.40;;;23.10;99.90;;;;;;4974174;28;20014;-81
2022/06/10 06:54:20;;;;;;;16.15;10.00;;;23.20;99.90;;;;;;4974442;28;20035;-82
2022/06/10 06:56:46;;;;;;;13.68;9.57;;;23.20;99.90;;;;;;4974696;28;20469;-80
2022/06/10 06:59:12;;;;;;;16.45;9.52;;;23.50;99.90;;;;;;4974668;28;20385;-79
2022/06/10 07:01:38;;;;;;;17.48;10.65;;;23.40;99.90;;;;;;4974351;28;20027;-80
2022/06/10 07:04:05;;;;;;;14.38;9.60;;;23.30;99.90;;;;;;4974060;28;20437;-82
2022/06/10 07:06:33;;;;;;;14.38;9.15;;;24.00;99.90;;;;;;4973495;28;20030;-80
2022/06/10 07:08:59;;;;;;;13.70;8.65;;;23.90;99.90;;;;;;4973277;28;20385;-82
2022/06/10 07:11:25;;;;;;;13.57;8.77;;;24.20;99.90;;;;;;4973563;28;20027;-82
2022/06/10 07:13:52;;;;;;;14.75;8.15;;;24.30;99.90;;;;;;4972515;28;20042;-79
2022/06/10 07:16:18;;;;;;;13.13;7.80;;;24.70;99.90;;;;;;4973481;28;20023;-81
2022/06/10 07:18:44;;;;;;;12.07;8.02;;;25.00;99.90;;;;;;4973474;28;20077;-77
2022/06/10 07:21:10;;;;;;;18.27;9.50;;;25.10;99.90;;;;;;4973518;28;20039;-78
2022/06/10 07:23:36;;;;;;;14.38;8.60;;;24.30;99.90;;;;;;4973133;28;20019;-83
2022/06/10 07:26:03;;;;;;;11.70;7.88;;;24.70;99.90;;;;;;4973470;28;20019;-80
2022/06/10 07:28:30;;;;;;;13.55;8.20;;;25.00;99.90;;;;;;4974001;28;20031;-80
2022/06/10 07:30:56;;;;;;;12.10;7.07;;;25.10;99.90;;;;;;4973895;28;20114;-81
2022/06/10 07:33:22;;;;;;;10.65;6.68;;;25.40;99.90;;;;;;4973750;28;20119;-80
2022/06/10 07:35:48;;;;;;;10.57;6.55;;;25.60;99.90;;;;;;4974236;28;20478;-81
2022/06/10 07:38:14;;;;;;;11.73;6.60;;;25.90;99.90;;;;;;4972568;28;20041;-82
2022/06/10 07:43:28;;;;;;;9.32;5.68;;;25.20;99.90;;;;;;4973255;28;20042;-81
2022/06/10 07:45:54;;;;;;;12.45;7.63;;;25.10;99.90;;;;;;4973001;28;20034;-83
2022/06/10 07:48:20;;;;;;;11.20;6.78;;;24.20;99.90;;;;;;4973395;28;20023;-81
2022/06/10 07:50:48;;;;;;;12.20;7.03;;;24.50;99.90;;;;;;4973229;28;20018;-78
2022/06/10 07:53:15;;;;;;;13.63;6.78;;;24.10;99.90;;;;;;4973135;28;20019;-83
2022/06/10 07:55:44;;;;;;;8.30;5.85;;;24.30;99.90;;;;;;4973042;28;20069;-83
2022/06/10 07:58:11;;;;;;;9.90;5.97;;;24.50;99.90;;;;;;4973059;28;20034;-79
2022/06/10 08:00:37;;;;;;;9.82;6.13;;;25.00;99.90;;;;;;4973382;28;20499;-81
2022/06/10 08:03:05;;;;;;;11.65;7.40;;;25.40;99.90;;;;;;4972944;28;20034;-79
2022/06/10 08:05:31;;;;;;;11.57;6.65;;;24.70;99.90;;;;;;4973198;28;20026;-81
2022/06/10 08:07:57;;;;;;;11.77;6.38;;;24.40;99.90;;;;;;4973139;28;20383;-81
2022/06/10 08:10:29;;;;;;;13.05;6.72;;;24.20;99.90;;;;;;4972732;28;20027;-80
2022/06/10 08:12:55;;;;;;;9.77;6.60;;;24.60;99.90;;;;;;4969826;28;20022;-83
2022/06/10 08:15:22;;;;;;;10.82;6.47;;;24.60;99.90;;;;;;4962071;28;20489;-82
2022/06/10 08:17:49;;;;;;;10.45;6.28;;;24.60;99.90;;;;;;4971638;28;20105;-75
2022/06/10 08:23:27;;;;;;;13.05;6.75;;;25.30;99.90;;;;;;4983983;28;20022;-81
2022/06/10 08:25:54;;;;;;;8.50;5.93;;;25.40;99.90;;;;;;4977004;28;20015;-81
2022/06/10 08:28:21;;;;;;;11.15;5.65;;;25.60;99.90;;;;;;4977335;28;20066;-81
2022/06/10 08:30:47;;;;;;;8.77;5.15;;;26.10;99.90;;;;;;4973763;28;20027;-80
2022/06/10 08:33:13;;;;;;;8.27;5.60;;;26.30;99.90;;;;;;4973885;28;20114;-81
2022/06/10 08:35:39;;;;;;;9.93;5.88;;;26.00;99.90;;;;;;4960179;28;20026;-81
2022/06/10 08:38:07;;;;;;;6.93;5.03;;;25.80;99.90;;;;;;4977574;28;20485;-82
2022/06/10 08:40:39;;;;;;;9.27;5.57;;;26.20;99.90;;;;;;4975272;28;20485;-82
2022/06/10 08:43:28;;;;;;;8.82;5.55;;;26.80;99.90;;;;;;4974255;28;20051;-83
2022/06/10 08:46:19;;;;;;;10.63;5.28;;;27.40;99.90;;;;;;4939737;29;20051;-82
2022/06/10 08:49:15;;;;;;;11.27;5.60;;;26.70;99.80;;;;;;4952454;29;20042;-83
2022/06/10 08:51:56;;;;;;;11.20;5.85;;;26.80;99.90;;;;;;4952308;29;20057;-83
2022/06/10 08:54:28;;;;;;;8.52;5.90;;;27.10;99.90;;;;;;4952426;28;20031;-83
2022/06/10 08:56:59;;;;;;;9.32;5.40;;;27.00;99.90;;;;;;4950543;29;20059;-83
2022/06/10 08:59:34;;;;;;;9.63;5.85;;;27.00;99.50;;;;;;4950498;28;20110;-83
2022/06/10 09:02:12;;;;;;;10.13;5.45;;;26.60;99.90;;;;;;4951953;29;20234;-82
2022/06/10 09:04:57;;;;;;;8.20;5.78;;;26.60;99.90;;;;;;4939323;29;20130;-83
2022/06/10 09:07:28;;;;;;;7.90;5.05;;;26.40;99.90;;;;;;4951574;29;20046;-83
2022/06/10 09:09:57;;;;;;;8.18;5.75;;;26.30;99.80;;;;;;4950604;29;20043;-82
2022/06/10 09:12:36;;;;;;;9.27;5.53;;;26.00;99.90;;;;;;4952012;29;20127;-82
2022/06/10 09:15:03;;;;;;;11.43;5.75;;;26.00;99.90;;;;;;4951604;29;20027;-78
2022/06/10 09:17:49;;;;;;;9.20;6.22;;;26.30;99.90;;;;;;4952032;28;20046;-78
2022/06/10 09:20:33;;;;;;;9.57;5.95;;;26.60;99.80;;;;;;4950798;29;20162;-81
2022/06/10 09:23:38;;;;;;;8.57;5.93;;;26.40;99.90;;;;;;4962873;28;20047;-83
2022/06/10 09:26:10;;;;;;;11.07;6.45;;;27.00;99.90;;;;;;4964593;28;20473;-82
2022/06/10 09:28:40;;;;;;;13.20;6.90;;;27.60;99.90;;;;;;4972882;28;20046;-83
2022/06/10 09:31:41;;;;;;;14.77;7.90;;;27.80;98.90;;;;;;4972724;28;20062;-83
2022/06/10 09:34:29;;;;;;;9.63;6.32;;;26.70;98.80;;;;;;4960696;28;20022;-84
2022/06/10 09:37:13;;;;;;;8.88;6.18;;;26.80;99.70;;;;;;4972882;28;20031;-84
2022/06/10 09:43:03;;;;;;;10.00;7.00;;;25.60;99.90;;;;;;4966487;28;20035;-82
2022/06/10 09:45:42;;;;;;;8.48;6.28;;;25.90;99.90;;;;;;4972951;28;20046;-81
2022/06/10 09:48:14;;;;;;;9.02;6.13;;;26.20;99.90;;;;;;4972351;28;20031;-82
2022/06/10 09:50:53;;;;;;;10.82;6.18;;;26.50;98.90;;;;;;4973161;28;20034;-81
2022/06/10 09:53:40;;;;;;;9.40;5.72;;;26.40;98.90;;;;;;4972932;28;20029;-81
2022/06/10 09:56:26;;;;;;;10.48;6.28;;;26.40;99.20;;;;;;4959662;28;20023;-79
2022/06/10 09:59:00;;;;;;;6.40;5.05;;;25.90;99.90;;;;;;4972945;28;20540;-81
2022/06/10 10:01:38;;;;;;;8.38;5.85;;;25.90;99.90;;;;;;4972541;28;20050;-82
2022/06/10 10:04:26;;;;;;;8.45;6.25;;;25.40;99.90;;;;;;4973005;28;20037;-77
2022/06/10 10:07:03;;;;;;;8.70;5.65;;;25.40;99.90;;;;;;4972641;28;20038;-82
2022/06/10 10:09:50;;;;;;;12.68;5.90;;;25.50;99.90;;;;;;4972404;28;20033;-83
2022/06/10 10:12:43;;;;;;;10.70;5.18;;;25.40;99.90;;;;;;4972635;28;20022;-82
2022/06/10 10:15:26;;;;;;;10.95;5.70;;;25.40;99.90;;;;;;4965591;28;20023;-82
2022/06/10 10:17:58;;;;;;;11.68;6.10;;;25.40;99.90;;;;;;4972285;28;20030;-81
2022/06/10 10:20:35;;;;;;;8.98;6.10;;;25.40;99.90;;;;;;4970840;28;20034;-80
2022/06/10 10:23:07;;;;;;;8.05;5.60;;;25.40;99.90;;;;;;4968806;28;20512;-72
2022/06/10 10:25:34;;;;;;;9.10;5.50;;;25.20;99.90;;;;;;4972746;28;20189;-75
2022/06/10 10:28:06;;;;;;;10.07;5.57;;;25.30;99.90;;;;;;4972665;28;20026;-79
2022/06/10 10:30:43;;;;;;;11.82;5.57;;;25.30;99.90;;;;;;4972520;28;20124;-82
2022/06/10 10:33:14;;;;;;;7.57;5.78;;;25.40;99.90;;;;;;4971548;28;20105;-82
2022/06/10 10:35:42;;;;;;;8.82;5.45;;;25.40;99.90;;;;;;4970291;28;20027;-81
2022/06/10 10:38:15;;;;;;;10.27;6.82;;;25.60;99.90;;;;;;4970695;28;20027;-81
2022/06/10 10:40:46;;;;;;;9.15;6.10;;;26.00;99.90;;;;;;4971919;28;20039;-81
2022/06/10 10:43:24;;;;;;;10.32;5.65;;;26.50;99.90;;;;;;4970377;28;20047;-82
2022/06/10 10:46:05;;;;;;;7.45;5.28;;;26.40;96.90;;;;;;4967916;28;20035;-80
2022/06/10 10:48:43;;;;;;;12.63;6.05;;;26.70;99.90;;;;;;4970486;28;20046;-76
2022/06/10 10:51:11;;;;;;;10.15;6.40;;;26.50;99.60;;;;;;4968322;28;20030;-82
2022/06/10 10:53:42;;;;;;;9.70;6.13;;;26.40;99.90;;;;;;4972205;28;20101;-81
2022/06/10 10:56:12;;;;;;;9.75;5.70;;;26.50;98.60;;;;;;4971820;28;20109;-75
2022/06/10 10:58:46;;;;;;;14.52;6.47;;;26.70;99.90;;;;;;4979359;28;20098;-81
2022/06/10 11:01:43;;;;;;;8.15;5.90;;;26.40;99.10;;;;;;4958781;28;20062;-82
2022/06/10 11:03:59;;;;;;;9.38;5.68;;;26.20;99.80;;;;;;4975373;28;20111;-80
2022/06/10 11:06:28;;;;;;;8.60;5.78;;;26.00;99.90;;;;;;4980521;28;20031;-82
2022/06/10 11:09:13;;;;;;;9.52;5.78;;;25.80;99.90;;;;;;4969747;28;20592;-78
2022/06/10 11:11:41;;;;;;;8.77;5.93;;;25.60;99.90;;;;;;4978307;28;20031;-72
2022/06/10 11:14:37;;;;;;;16.08;7.47;;;25.70;99.90;;;;;;4972467;28;20035;-81
2022/06/10 11:17:14;;;;;;;10.35;6.03;;;25.80;99.90;;;;;;4972372;28;20027;-78
2022/06/10 11:19:51;;;;;;;12.63;6.22;;;25.80;99.90;;;;;;4973667;28;20487;-79
2022/06/10 11:22:31;;;;;;;8.63;5.30;;;26.30;99.90;;;;;;4975155;28;20363;-82
2022/06/10 11:25:03;;;;;;;8.63;5.65;;;26.40;99.30;;;;;;4975041;28;20029;-81
2022/06/10 11:27:35;;;;;;;8.10;5.75;;;26.60;99.80;;;;;;4975485;28;20191;-68
2022/06/10 11:30:10;;;;;;;6.88;5.47;;;26.40;99.90;;;;;;4975796;28;20089;-81
2022/06/10 11:32:48;;;;;;;16.92;6.32;;;26.30;99.90;;;;;;4975147;28;20038;-82
2022/06/10 11:35:25;;;;;;;10.73;6.22;;;26.10;99.90;;;;;;4966428;28;20106;-84
2022/06/10 11:38:03;;;;;;;7.55;4.78;;;25.80;99.90;;;;;;4971383;28;20019;-78
2022/06/10 11:40:41;;;;;;;13.65;5.70;;;25.70;99.90;;;;;;4965650;28;20046;-77
2022/06/10 11:43:25;;;;;;;7.00;4.25;;;25.60;99.90;;;;;;4967048;28;20050;-75
2022/06/10 11:46:02;;;;;;;7.10;4.60;;;25.60;99.90;;;;;;4970944;28;20516;-77
2022/06/10 11:48:54;;;;;;;7.47;3.90;;;25.40;99.90;;;;;;4971919;28;20077;-78
2022/06/10 11:51:38;;;;;;;5.07;3.70;;;25.20;99.90;;;;;;4971226;28;20027;-77
2022/06/10 11:54:10;;;;;;;7.22;3.53;;;25.20;99.90;;;;;;4973813;28;20155;-77
2022/06/10 12:00:00;;;;;;;9.27;3.72;;;25.40;99.90;;;;;;4973871;28;20092;-77
2022/06/10 12:02:32;;;;;;;5.47;3.55;;;25.40;99.80;;;;;;4973864;28;20035;-78
2022/06/10 12:05:04;;;;;;;;;;;25.60;99.50;;;;;;4974225;28;20065;-77
2022/06/10 12:07:34;;;;;;;7.63;3.50;;;25.60;99.90;;;;;;4974179;28;19917;-79
2022/06/10 12:10:04;;;;;;;13.98;8.52;;;25.70;99.90;;;;;;4973850;28;20109;-77
2022/06/10 12:12:36;;;;;;;13.57;8.90;;;25.60;99.90;;;;;;4974144;28;20070;-74
2022/06/10 12:15:34;;;;;;;14.95;9.50;;;25.40;99.90;;;;;;4973643;28;20062;-75
2022/06/10 12:18:03;;;;;;;13.88;9.50;;;25.30;99.90;;;;;;4963207;28;20070;-77
2022/06/10 12:20:32;;;;;;;13.73;8.18;;;25.10;99.90;;;;;;4973342;28;20050;-78
2022/06/10 12:23:05;;;;;;;15.82;9.70;;;24.80;99.90;;;;;;4967979;28;20030;-77
2022/06/10 12:25:49;;;;;;;16.88;10.85;;;24.50;99.90;;;;;;4960532;28;20046;-72
2022/06/10 12:28:42;;;;;;;11.93;8.95;;;24.20;99.90;;;;;;4969118;28;20027;-76
2022/06/10 12:31:40;;;;;;;12.57;9.80;;;24.20;99.90;;;;;;4973646;28;20023;-75
2022/06/10 12:34:15;;;;;;;14.02;10.30;;;24.10;99.90;;;;;;4961612;28;20041;-77
2022/06/10 12:36:49;;;;;;;13.57;9.82;;;23.90;99.90;;;;;;4973947;28;20489;-76
2022/06/10 12:39:23;;;;;;;19.45;10.02;;;24.00;99.90;;;;;;4973793;28;20167;-77
2022/06/10 12:41:55;;;;;;;15.35;10.05;;;24.00;99.90;;;;;;4973854;28;20042;-74
2022/06/10 12:44:25;;;;;;;;;;;24.10;99.90;;;;;;4974410;28;20134;-77
2022/06/10 12:47:01;;;;;;;16.02;10.68;;;24.30;99.90;;;;;;4974165;28;19921;-78
2022/06/10 12:49:41;;;;;;;13.50;8.57;;;24.40;99.90;;;;;;4974410;28;20396;-77
2022/06/10 12:52:35;;;;;;;9.20;6.15;;;24.60;99.90;;;;;;4973832;28;20035;-75
2022/06/10 12:55:24;;;;;;;12.57;7.40;;;24.60;99.90;;;;;;4974198;28;20085;-77
2022/06/10 12:57:53;;;;;;;9.20;5.60;;;24.60;99.90;;;;;;4959127;28;20169;-78
2022/06/10 13:00:18;;;;;;;9.80;6.10;;;24.30;99.90;;;;;;4971589;28;20038;-78
2022/06/10 13:02:59;;;;;;;8.13;5.40;;;24.40;99.90;;;;;;4973161;28;20027;-77
2022/06/10 13:05:31;;;;;;;9.68;5.47;;;24.40;99.90;;;;;;4973736;28;20027;-77
2022/06/10 13:07:58;;;;;;;10.10;6.22;;;24.30;99.90;;;;;;4970070;28;20074;-75
2022/06/10 13:10:30;;;;;;;11.23;6.13;;;24.30;99.90;;;;;;4970968;28;20033;-78
2022/06/10 13:13:16;;;;;;;11.02;6.78;;;24.50;99.90;;;;;;4973230;28;20050;-78
2022/06/10 13:15:43;;;;;;;9.95;5.85;;;24.70;99.90;;;;;;4973089;28;20035;-73
2022/06/10 13:18:18;;;;;;;9.32;5.88;;;25.00;99.90;;;;;;4972893;28;20023;-78
2022/06/10 13:20:47;;;;;;;7.95;4.93;;;25.00;99.90;;;;;;4974439;28;20477;-76
2022/06/10 13:23:13;;;;;;;20.40;6.50;;;24.80;99.90;;;;;;4974279;28;20154;-76
2022/06/10 13:25:41;;;;;;;9.50;5.97;;;24.40;99.90;;;;;;4973033;28;20118;-77